Time;durP1;ratioP1;P1;durP2;ratioP2;P2;SDS_P1;SDS_P2;PMS_P1;PMS_P2;Temp;Humidity;BMP_temperature;BMP_pressure;BME280_temperature;BME280_humidity;BME280_pressure;Samples;Min_cycle;Max_cycle;Signal;HPM_P1;HPM_P2
2022/10/15 05:00:50;;;;;;;0.80;0.60;;;16.00;97.20;;;;;;1714112;28;20718;-75
2022/10/15 05:01:41;;;;;;;1.35;0.40;;;16.00;97.20;;;;;;1713997;28;20221;-75
2022/10/15 05:02:33;;;;;;;2.00;0.60;;;16.00;97.20;;;;;;1714152;28;20202;-75
2022/10/15 05:03:24;;;;;;;1.00;0.60;;;16.00;97.20;;;;;;1714004;28;20217;-78
2022/10/15 05:04:15;;;;;;;1.90;0.60;;;16.00;97.20;;;;;;1712930;28;20206;-76
2022/10/15 05:05:07;;;;;;;3.78;0.55;;;16.00;97.20;;;;;;1714074;28;20206;-75
2022/10/15 05:06:02;;;;;;;0.60;0.50;;;16.00;97.20;;;;;;1713718;28;20728;-75
2022/10/15 05:06:53;;;;;;;0.93;0.60;;;16.00;97.20;;;;;;1713730;28;20197;-76
2022/10/15 05:07:45;;;;;;;0.67;0.50;;;16.00;97.20;;;;;;1713887;28;20198;-75
2022/10/15 05:08:37;;;;;;;0.90;0.50;;;16.00;97.20;;;;;;1713744;28;20217;-76
2022/10/15 05:09:28;;;;;;;0.95;0.50;;;16.00;97.20;;;;;;1714088;28;20216;-75
2022/10/15 05:10:19;;;;;;;2.38;0.60;;;16.00;97.20;;;;;;1713856;28;20202;-75
2022/10/15 05:11:14;;;;;;;1.63;0.60;;;16.00;97.20;;;;;;1714098;28;20208;-75
2022/10/15 05:12:05;;;;;;;0.80;0.60;;;16.00;97.20;;;;;;1713828;28;20537;-75
2022/10/15 05:12:57;;;;;;;2.73;0.60;;;16.00;97.20;;;;;;1713999;28;20193;-75
2022/10/15 05:13:48;;;;;;;2.13;0.55;;;16.00;97.20;;;;;;1713786;28;20201;-75
2022/10/15 05:14:40;;;;;;;2.42;0.75;;;16.00;97.20;;;;;;1713825;28;20265;-75
2022/10/15 05:15:31;;;;;;;1.08;0.60;;;16.10;97.20;;;;;;1714066;28;20277;-75
2022/10/15 05:16:26;;;;;;;1.00;0.53;;;16.10;97.20;;;;;;1713690;28;20210;-75
2022/10/15 05:17:16;;;;;;;3.63;0.70;;;16.10;97.20;;;;;;1713964;28;20209;-75
2022/10/15 05:18:08;;;;;;;1.30;0.53;;;16.10;97.20;;;;;;1713985;28;20205;-75
2022/10/15 05:19:00;;;;;;;2.25;0.60;;;16.00;97.20;;;;;;1713999;28;20205;-75
2022/10/15 05:19:52;;;;;;;0.73;0.60;;;16.10;97.20;;;;;;1714058;28;20708;-75
2022/10/15 05:20:43;;;;;;;0.80;0.50;;;16.00;97.20;;;;;;1713860;28;20228;-75
2022/10/15 05:21:35;;;;;;;0.70;0.50;;;16.00;97.20;;;;;;1713986;28;20204;-75
2022/10/15 05:22:26;;;;;;;1.40;0.50;;;16.00;97.20;;;;;;1713588;28;20206;-75
2022/10/15 05:23:18;;;;;;;1.33;0.50;;;16.00;97.20;;;;;;1713985;28;20213;-75
2022/10/15 05:24:09;;;;;;;3.38;0.50;;;16.00;97.20;;;;;;1713944;28;20585;-75
2022/10/15 05:25:01;;;;;;;6.70;1.05;;;16.00;97.20;;;;;;1713944;28;20236;-76
2022/10/15 05:25:52;;;;;;;2.25;0.75;;;16.00;97.20;;;;;;1713941;28;20225;-76
2022/10/15 05:26:44;;;;;;;1.40;0.60;;;16.00;97.20;;;;;;1713654;28;20248;-75
2022/10/15 05:27:35;;;;;;;1.38;0.40;;;16.00;97.20;;;;;;1713933;28;20453;-76
2022/10/15 05:28:25;;;;;;;0.80;0.60;;;16.00;97.20;;;;;;1713943;28;20233;-75
2022/10/15 05:29:17;;;;;;;2.00;0.50;;;16.00;97.20;;;;;;1713968;28;20209;-75
2022/10/15 05:30:09;;;;;;;1.48;0.60;;;16.00;97.20;;;;;;1713692;28;20206;-75
2022/10/15 05:31:05;;;;;;;0.68;0.45;;;16.00;97.20;;;;;;1713808;28;20226;-75
2022/10/15 05:31:57;;;;;;;1.25;0.60;;;16.00;97.20;;;;;;1707603;28;20217;-76
2022/10/15 05:32:52;;;;;;;0.80;0.60;;;16.00;97.20;;;;;;1707268;29;20575;-75
2022/10/15 05:33:42;;;;;;;1.15;0.43;;;16.00;97.20;;;;;;1707106;28;20550;-75
2022/10/15 05:34:34;;;;;;;0.70;0.60;;;16.00;97.20;;;;;;1707252;29;20273;-76
2022/10/15 05:35:25;;;;;;;2.15;0.68;;;16.00;97.20;;;;;;1707289;29;20583;-75
2022/10/15 05:36:19;;;;;;;0.80;0.70;;;16.00;97.20;;;;;;1707029;29;20571;-75
2022/10/15 05:37:10;;;;;;;1.48;0.60;;;16.00;97.20;;;;;;1707253;29;20202;-76
2022/10/15 05:38:03;;;;;;;0.70;0.50;;;16.00;97.20;;;;;;1707395;29;20198;-75
2022/10/15 05:38:56;;;;;;;1.50;0.57;;;16.00;97.20;;;;;;1707349;29;20569;-75
2022/10/15 05:39:48;;;;;;;0.65;0.50;;;16.00;97.20;;;;;;1707277;29;20207;-75
2022/10/15 05:40:38;;;;;;;0.90;0.55;;;16.00;97.20;;;;;;1707176;28;20222;-75
2022/10/15 05:41:31;;;;;;;1.47;0.57;;;16.00;97.20;;;;;;1707278;29;20198;-76
2022/10/15 05:42:21;;;;;;;0.70;0.60;;;16.00;97.20;;;;;;1707266;29;20665;-75
2022/10/15 05:43:13;;;;;;;1.07;0.50;;;16.00;97.20;;;;;;1707342;29;20657;-75
2022/10/15 05:44:04;;;;;;;1.35;0.43;;;16.00;97.20;;;;;;1706984;29;20202;-76
2022/10/15 05:44:56;;;;;;;2.13;0.60;;;16.00;97.20;;;;;;1707282;29;20202;-75
2022/10/15 05:45:46;;;;;;;0.90;0.50;;;16.00;97.20;;;;;;1707226;29;20446;-75
2022/10/15 05:46:38;;;;;;;1.00;0.60;;;15.90;97.20;;;;;;1707033;29;20254;-76
2022/10/15 05:47:30;;;;;;;0.80;0.55;;;15.90;97.20;;;;;;1707172;29;20291;-75
2022/10/15 05:48:22;;;;;;;0.90;0.50;;;15.90;97.20;;;;;;1707257;29;20705;-75
2022/10/15 05:49:13;;;;;;;3.92;0.70;;;16.00;97.20;;;;;;1707298;29;20202;-76
2022/10/15 05:50:06;;;;;;;0.87;0.57;;;15.90;97.20;;;;;;1707241;28;20210;-75
2022/10/15 05:51:00;;;;;;;1.55;0.75;;;15.90;97.20;;;;;;1707172;29;20234;-75
2022/10/15 05:51:52;;;;;;;2.08;0.50;;;15.90;97.20;;;;;;1707158;29;20217;-75
2022/10/15 05:52:42;;;;;;;1.45;0.50;;;15.90;97.20;;;;;;1707206;28;20732;-75
2022/10/15 05:53:34;;;;;;;1.10;0.50;;;15.90;97.20;;;;;;1707000;28;20629;-76
2022/10/15 05:54:25;;;;;;;3.35;0.60;;;15.90;97.20;;;;;;1707194;29;20665;-75
2022/10/15 05:55:16;;;;;;;0.90;0.60;;;15.90;97.20;;;;;;1707292;29;20664;-75
2022/10/15 05:56:08;;;;;;;4.03;0.80;;;15.90;97.20;;;;;;1707143;29;20322;-78
2022/10/15 05:56:59;;;;;;;1.52;0.50;;;15.90;97.20;;;;;;1707880;28;20688;-75
2022/10/15 05:57:50;;;;;;;0.80;0.55;;;15.90;97.20;;;;;;1708488;29;20213;-75
2022/10/15 05:58:42;;;;;;;1.03;0.63;;;15.90;97.20;;;;;;1708586;29;20209;-75
2022/10/15 05:59:32;;;;;;;3.15;0.70;;;15.90;97.20;;;;;;1708527;29;20209;-75
2022/10/15 06:00:24;;;;;;;1.40;0.60;;;15.90;97.20;;;;;;1708184;29;20201;-74
2022/10/15 06:01:15;;;;;;;1.33;0.77;;;15.90;97.20;;;;;;1708615;29;20578;-75
2022/10/15 06:02:09;;;;;;;1.23;0.70;;;15.90;97.20;;;;;;1708512;29;20285;-74
2022/10/15 06:03:01;;;;;;;0.70;0.50;;;15.90;97.20;;;;;;1708494;29;20213;-75
2022/10/15 06:03:52;;;;;;;0.77;0.65;;;15.90;97.20;;;;;;1708551;29;20199;-75
2022/10/15 06:04:43;;;;;;;2.40;0.60;;;15.90;97.20;;;;;;1708543;28;20202;-75
2022/10/15 06:05:34;;;;;;;2.00;1.02;;;15.90;97.20;;;;;;1708550;29;20221;-75
2022/10/15 06:06:26;;;;;;;3.27;1.97;;;15.90;97.20;;;;;;1708038;29;20232;-74
2022/10/15 06:07:17;;;;;;;0.70;0.50;;;15.90;97.20;;;;;;1708469;29;20221;-75
2022/10/15 06:08:09;;;;;;;3.47;0.90;;;15.90;97.20;;;;;;1708458;28;20202;-75
2022/10/15 06:09:00;;;;;;;1.08;0.90;;;15.90;97.20;;;;;;1708531;29;20213;-74
2022/10/15 06:09:52;;;;;;;0.85;0.57;;;15.90;97.20;;;;;;1708562;29;20198;-76
2022/10/15 06:10:43;;;;;;;0.80;0.60;;;15.90;97.20;;;;;;1708175;28;20225;-76
2022/10/15 06:11:36;;;;;;;1.73;0.67;;;15.90;97.20;;;;;;1708566;29;20195;-76
2022/10/15 06:12:26;;;;;;;1.80;0.60;;;15.90;97.20;;;;;;1708528;29;20844;-77
2022/10/15 06:13:18;;;;;;;0.70;0.50;;;15.90;97.20;;;;;;1708711;29;20694;-79
2022/10/15 06:14:09;;;;;;;0.80;0.60;;;15.90;97.20;;;;;;1708873;29;20202;-77
2022/10/15 06:15:01;;;;;;;0.80;0.60;;;15.90;97.20;;;;;;1708414;28;20242;-76
2022/10/15 06:15:52;;;;;;;1.00;0.60;;;15.90;97.20;;;;;;1708477;28;20205;-76
2022/10/15 06:16:44;;;;;;;1.90;0.70;;;15.90;97.20;;;;;;1708223;28;20214;-77
2022/10/15 06:17:35;;;;;;;2.78;0.80;;;15.90;97.20;;;;;;1708455;28;20744;-77
2022/10/15 06:18:28;;;;;;;4.83;0.80;;;15.90;97.20;;;;;;1708414;28;20674;-76
2022/10/15 06:19:19;;;;;;;1.00;0.68;;;15.90;97.20;;;;;;1708600;28;20230;-77
2022/10/15 06:20:11;;;;;;;1.10;0.70;;;15.90;97.20;;;;;;1708175;28;20218;-76
2022/10/15 06:21:02;;;;;;;2.15;0.52;;;15.90;97.20;;;;;;1708398;29;20206;-78
2022/10/15 06:21:54;;;;;;;0.70;0.50;;;15.90;97.20;;;;;;1708432;29;20195;-75
2022/10/15 06:22:44;;;;;;;7.40;0.93;;;15.90;97.20;;;;;;1708234;29;20202;-75
2022/10/15 06:23:36;;;;;;;0.80;0.60;;;15.90;97.20;;;;;;1708514;28;20289;-77
2022/10/15 06:24:27;;;;;;;1.00;0.70;;;15.90;97.20;;;;;;1708395;28;20203;-77
2022/10/15 06:25:19;;;;;;;1.13;0.60;;;15.90;97.20;;;;;;1708448;28;20206;-75
2022/10/15 06:26:10;;;;;;;1.00;0.50;;;15.90;97.20;;;;;;1708011;28;20206;-76
2022/10/15 06:27:01;;;;;;;1.83;0.75;;;15.90;97.20;;;;;;1708330;28;20203;-74
2022/10/15 06:27:52;;;;;;;0.95;0.50;;;15.90;97.20;;;;;;1708350;28;20563;-75
2022/10/15 06:28:44;;;;;;;2.50;0.80;;;15.90;97.20;;;;;;1708517;28;20293;-75
2022/10/15 06:29:35;;;;;;;1.60;0.60;;;15.90;97.20;;;;;;1708438;28;20469;-74
2022/10/15 06:30:27;;;;;;;1.20;0.67;;;15.90;97.20;;;;;;1708014;28;20217;-75
2022/10/15 06:31:17;;;;;;;1.00;0.68;;;15.90;97.20;;;;;;1708277;28;20212;-75
2022/10/15 06:32:10;;;;;;;1.43;0.90;;;15.90;97.20;;;;;;1708405;29;20205;-74
2022/10/15 06:33:00;;;;;;;1.05;0.95;;;15.90;97.20;;;;;;1708270;29;20449;-75
2022/10/15 06:33:53;;;;;;;1.57;0.60;;;15.90;97.20;;;;;;1708401;28;20214;-74
2022/10/15 06:34:44;;;;;;;2.47;0.63;;;15.90;97.20;;;;;;1708017;29;20206;-74
2022/10/15 06:35:36;;;;;;;2.13;0.73;;;15.90;97.20;;;;;;1708423;29;20207;-79
2022/10/15 06:36:27;;;;;;;1.23;0.60;;;15.90;97.20;;;;;;1709020;29;20198;-79
2022/10/15 06:37:18;;;;;;;0.87;0.67;;;15.90;97.20;;;;;;1708354;29;20202;-78
2022/10/15 06:38:09;;;;;;;3.17;0.80;;;15.90;97.20;;;;;;1708493;29;20206;-80
2022/10/15 06:39:01;;;;;;;1.30;0.70;;;15.90;97.20;;;;;;1708597;29;20210;-78
2022/10/15 06:39:52;;;;;;;2.55;0.68;;;15.90;97.20;;;;;;1708373;29;20198;-78
2022/10/15 06:40:44;;;;;;;0.80;0.50;;;15.90;97.20;;;;;;1708644;28;20246;-77
2022/10/15 06:41:34;;;;;;;2.70;0.60;;;15.90;97.20;;;;;;1708510;29;20628;-77
2022/10/15 06:42:26;;;;;;;2.27;0.90;;;15.90;97.20;;;;;;1708694;28;20590;-79
2022/10/15 06:43:17;;;;;;;0.80;0.70;;;15.90;97.20;;;;;;1704420;28;20665;-78
2022/10/15 06:44:09;;;;;;;2.00;0.63;;;15.90;97.20;;;;;;1707050;28;20647;-79
2022/10/15 06:45:00;;;;;;;3.38;0.82;;;15.90;97.20;;;;;;1707147;29;20217;-80
2022/10/15 06:45:51;;;;;;;2.03;0.60;;;15.90;97.20;;;;;;1703054;29;20199;-77
2022/10/15 06:46:42;;;;;;;1.77;1.13;;;15.90;97.20;;;;;;1703347;29;20221;-76
2022/10/15 06:47:34;;;;;;;2.50;0.60;;;15.90;97.20;;;;;;1707483;28;20211;-78
2022/10/15 06:48:25;;;;;;;3.92;1.00;;;15.90;97.20;;;;;;1707640;29;20210;-78
2022/10/15 06:49:18;;;;;;;1.37;0.60;;;15.90;97.20;;;;;;1706869;29;20290;-78
2022/10/15 06:50:09;;;;;;;0.70;0.55;;;15.90;97.20;;;;;;1707429;29;20207;-80
2022/10/15 06:51:01;;;;;;;1.25;1.02;;;15.90;97.20;;;;;;1707862;28;20223;-78
2022/10/15 06:51:52;;;;;;;0.70;0.65;;;15.90;97.20;;;;;;1707636;29;20206;-79
2022/10/15 06:52:44;;;;;;;2.50;0.80;;;15.90;97.20;;;;;;1707725;29;20313;-78
2022/10/15 06:53:35;;;;;;;1.88;0.60;;;15.90;97.20;;;;;;1707870;29;20264;-78
2022/10/15 06:54:27;;;;;;;1.50;0.60;;;15.90;97.20;;;;;;1707599;29;20198;-78
2022/10/15 06:55:17;;;;;;;1.02;0.60;;;15.90;97.20;;;;;;1707364;29;20221;-79
2022/10/15 06:56:09;;;;;;;1.00;0.80;;;15.90;97.20;;;;;;1707057;28;20198;-79
2022/10/15 06:57:00;;;;;;;2.50;0.75;;;15.90;97.20;;;;;;1707686;29;20241;-79
2022/10/15 06:57:55;;;;;;;1.20;0.73;;;15.90;97.20;;;;;;1707681;29;20198;-80
2022/10/15 06:58:46;;;;;;;1.30;0.90;;;15.90;97.20;;;;;;1708020;28;20203;-77
2022/10/15 06:59:38;;;;;;;1.50;0.80;;;15.90;97.20;;;;;;1707749;29;20273;-76
2022/10/15 07:00:29;;;;;;;1.42;0.90;;;15.90;97.20;;;;;;1707413;29;20579;-78
2022/10/15 07:01:20;;;;;;;1.10;0.73;;;15.90;97.20;;;;;;1707522;29;20202;-77
2022/10/15 07:02:12;;;;;;;1.98;0.95;;;15.90;97.20;;;;;;1707650;29;20202;-77
2022/10/15 07:03:05;;;;;;;1.00;0.70;;;15.90;97.20;;;;;;1707618;28;20198;-76
2022/10/15 07:03:56;;;;;;;2.42;0.80;;;15.90;97.20;;;;;;1707737;29;20228;-78
2022/10/15 07:04:49;;;;;;;1.77;0.90;;;15.90;97.20;;;;;;1707315;29;20278;-77
2022/10/15 07:05:39;;;;;;;1.38;0.90;;;15.90;97.20;;;;;;1707344;29;20210;-77
2022/10/15 07:06:31;;;;;;;1.53;1.43;;;15.90;97.20;;;;;;1706858;29;20242;-78
2022/10/15 07:07:22;;;;;;;2.40;0.90;;;15.90;97.20;;;;;;1707430;28;20238;-79
2022/10/15 07:08:14;;;;;;;1.80;0.60;;;15.90;97.20;;;;;;1707082;28;20202;-77
2022/10/15 07:09:04;;;;;;;4.57;1.00;;;15.90;97.20;;;;;;1707143;29;20232;-78
2022/10/15 07:09:56;;;;;;;1.50;0.80;;;15.90;97.20;;;;;;1707647;29;20202;-75
2022/10/15 07:10:47;;;;;;;1.13;1.02;;;15.90;97.20;;;;;;1707534;28;20230;-77
2022/10/15 07:11:39;;;;;;;0.80;0.70;;;15.90;97.20;;;;;;1707591;29;20198;-76
2022/10/15 07:12:29;;;;;;;1.80;0.82;;;15.90;97.20;;;;;;1707540;29;20213;-77
2022/10/15 07:13:21;;;;;;;1.97;0.80;;;15.90;97.20;;;;;;1707577;29;20213;-78
2022/10/15 07:14:12;;;;;;;2.33;0.82;;;15.90;97.20;;;;;;1707550;29;20207;-77
2022/10/15 07:15:06;;;;;;;2.50;0.87;;;15.90;97.20;;;;;;1707265;29;20289;-78
2022/10/15 07:15:56;;;;;;;1.63;0.68;;;15.90;97.20;;;;;;1707571;29;20211;-78
2022/10/15 07:16:48;;;;;;;1.50;1.00;;;15.90;97.20;;;;;;1706678;29;20194;-78
2022/10/15 07:17:44;;;;;;;1.90;0.93;;;15.90;97.20;;;;;;1707128;28;20206;-80
2022/10/15 07:18:36;;;;;;;1.20;0.70;;;15.90;97.20;;;;;;1707782;29;20778;-79
2022/10/15 07:19:27;;;;;;;3.05;0.70;;;15.90;97.20;;;;;;1707784;29;20199;-79
2022/10/15 07:20:20;;;;;;;1.63;0.73;;;15.90;97.20;;;;;;1707516;28;20664;-78
2022/10/15 07:21:11;;;;;;;2.10;0.77;;;15.90;97.20;;;;;;1707812;29;20207;-81
2022/10/15 07:22:03;;;;;;;1.37;0.60;;;15.90;97.20;;;;;;1707462;29;20203;-77
2022/10/15 07:22:55;;;;;;;2.92;0.80;;;15.90;97.20;;;;;;1707372;29;20214;-77
2022/10/15 07:23:47;;;;;;;1.38;0.80;;;15.90;97.20;;;;;;1707399;28;20549;-78
2022/10/15 07:24:38;;;;;;;0.90;0.70;;;15.90;97.20;;;;;;1707263;29;20203;-78
2022/10/15 07:25:30;;;;;;;1.47;0.60;;;15.90;97.20;;;;;;1707178;29;20202;-77
2022/10/15 07:26:20;;;;;;;1.13;0.60;;;15.90;97.20;;;;;;1707012;29;20944;-78
2022/10/15 07:27:12;;;;;;;1.73;0.80;;;15.90;97.20;;;;;;1706741;29;20575;-79
2022/10/15 07:28:04;;;;;;;0.90;0.60;;;16.00;97.20;;;;;;1707014;29;20210;-79
2022/10/15 07:28:55;;;;;;;2.45;0.68;;;16.00;97.20;;;;;;1707336;29;20620;-77
2022/10/15 07:29:46;;;;;;;0.80;0.70;;;16.00;97.20;;;;;;1707340;29;20203;-80
2022/10/15 07:30:38;;;;;;;0.97;0.70;;;16.00;97.20;;;;;;1707491;28;20337;-78
2022/10/15 07:31:29;;;;;;;1.02;0.70;;;16.00;97.20;;;;;;1707345;29;20222;-79
2022/10/15 07:32:21;;;;;;;5.50;1.00;;;16.00;97.20;;;;;;1707538;28;20661;-79
2022/10/15 07:33:12;;;;;;;1.25;0.80;;;16.00;97.20;;;;;;1707367;29;20218;-78
2022/10/15 07:34:04;;;;;;;1.70;0.80;;;16.00;97.20;;;;;;1707162;29;20290;-78
2022/10/15 07:34:54;;;;;;;1.60;0.60;;;16.00;97.20;;;;;;1706942;29;20217;-77
2022/10/15 07:35:47;;;;;;;0.80;0.70;;;16.00;97.20;;;;;;1707521;28;20220;-77
2022/10/15 07:36:38;;;;;;;1.13;0.90;;;16.00;97.20;;;;;;1706490;28;20203;-78
2022/10/15 07:37:30;;;;;;;1.80;0.80;;;16.00;97.20;;;;;;1707404;28;20199;-78
2022/10/15 07:38:21;;;;;;;1.13;0.75;;;16.00;97.20;;;;;;1707199;29;20213;-79
2022/10/15 07:39:13;;;;;;;1.00;0.80;;;16.00;97.20;;;;;;1707308;29;20234;-78
2022/10/15 07:40:05;;;;;;;3.55;1.08;;;16.00;97.20;;;;;;1707328;28;20693;-79
2022/10/15 07:40:58;;;;;;;0.88;0.73;;;16.00;97.20;;;;;;1707335;29;20223;-78
2022/10/15 07:41:49;;;;;;;0.80;0.70;;;16.00;97.20;;;;;;1707574;29;20208;-77
2022/10/15 07:42:41;;;;;;;0.90;0.70;;;16.00;97.20;;;;;;1707424;29;20194;-78
2022/10/15 07:43:32;;;;;;;2.33;0.75;;;16.00;97.20;;;;;;1707704;29;20202;-78
2022/10/15 07:44:23;;;;;;;1.63;0.87;;;16.00;97.20;;;;;;1707639;29;20198;-76
2022/10/15 07:45:14;;;;;;;2.08;0.70;;;16.00;97.20;;;;;;1706957;29;20469;-77
2022/10/15 07:46:06;;;;;;;1.00;0.80;;;16.00;97.20;;;;;;1707273;29;20211;-78
2022/10/15 07:46:57;;;;;;;0.80;0.63;;;16.00;97.20;;;;;;1706739;29;20486;-80
2022/10/15 07:47:49;;;;;;;0.90;0.70;;;16.00;97.20;;;;;;1707235;29;20195;-78
2022/10/15 07:48:39;;;;;;;1.45;0.70;;;16.00;97.20;;;;;;1707453;29;20210;-79
2022/10/15 07:49:32;;;;;;;1.13;0.70;;;16.00;97.20;;;;;;1707409;28;20198;-80
2022/10/15 07:50:23;;;;;;;1.50;0.68;;;16.00;97.20;;;;;;1707324;28;20203;-79
2022/10/15 07:51:16;;;;;;;0.90;0.80;;;16.00;97.20;;;;;;1707422;29;20289;-79
2022/10/15 07:52:07;;;;;;;0.85;0.68;;;16.00;97.20;;;;;;1707312;29;20945;-78
2022/10/15 07:52:59;;;;;;;3.25;0.85;;;16.00;97.20;;;;;;1707516;29;20206;-80
2022/10/15 07:53:50;;;;;;;1.70;0.85;;;16.00;97.20;;;;;;1707355;29;20225;-81
2022/10/15 07:54:42;;;;;;;0.90;0.70;;;16.00;97.20;;;;;;1707069;29;20201;-79
2022/10/15 07:55:32;;;;;;;1.00;0.70;;;16.00;97.20;;;;;;1707076;29;20230;-80
2022/10/15 07:56:24;;;;;;;0.80;0.80;;;16.00;97.20;;;;;;1706779;29;20228;-79
2022/10/15 07:57:16;;;;;;;2.35;0.90;;;16.10;97.20;;;;;;1707070;29;20222;-78
2022/10/15 07:58:10;;;;;;;1.65;0.80;;;16.10;97.20;;;;;;1707352;28;20202;-79
2022/10/15 07:59:01;;;;;;;2.40;0.80;;;16.10;97.20;;;;;;1707319;29;20210;-78
2022/10/15 07:59:52;;;;;;;2.50;0.90;;;16.10;97.20;;;;;;1707733;29;20191;-79
2022/10/15 08:00:43;;;;;;;3.25;1.05;;;16.10;97.20;;;;;;1707989;28;20229;-79
2022/10/15 08:01:35;;;;;;;2.20;1.00;;;16.10;97.20;;;;;;1707169;29;20218;-80
2022/10/15 08:02:26;;;;;;;2.65;0.80;;;16.10;97.20;;;;;;1707268;29;20691;-79
2022/10/15 08:03:17;;;;;;;1.93;0.80;;;16.10;97.20;;;;;;1707324;29;20708;-79
2022/10/15 08:04:08;;;;;;;1.35;0.80;;;16.20;97.20;;;;;;1707225;29;20710;-79
2022/10/15 08:05:00;;;;;;;2.60;0.80;;;16.20;97.20;;;;;;1707075;29;20206;-79
2022/10/15 08:05:52;;;;;;;1.00;0.80;;;16.20;97.20;;;;;;1707325;29;20219;-80
2022/10/15 08:06:45;;;;;;;1.90;1.10;;;16.20;97.20;;;;;;1706505;29;20298;-79
2022/10/15 08:07:36;;;;;;;1.58;0.80;;;16.20;97.20;;;;;;1707286;29;20217;-80
2022/10/15 08:08:27;;;;;;;1.60;0.80;;;16.20;97.20;;;;;;1707332;29;20255;-81
2022/10/15 08:09:19;;;;;;;2.00;0.90;;;16.20;97.20;;;;;;1707299;29;20699;-79
2022/10/15 08:10:12;;;;;;;3.55;0.80;;;16.20;97.20;;;;;;1707250;29;20202;-79
2022/10/15 08:11:04;;;;;;;1.10;1.00;;;16.20;97.20;;;;;;1707343;29;20576;-80
2022/10/15 08:11:56;;;;;;;1.50;1.00;;;16.30;97.20;;;;;;1707269;29;20689;-80
2022/10/15 08:12:46;;;;;;;1.30;0.85;;;16.30;97.20;;;;;;1707125;29;20213;-80
2022/10/15 08:13:40;;;;;;;1.33;0.83;;;16.30;97.20;;;;;;1707415;29;20293;-79
2022/10/15 08:14:31;;;;;;;0.90;0.80;;;16.30;97.20;;;;;;1707420;29;20743;-80
2022/10/15 08:15:21;;;;;;;2.40;0.70;;;16.30;97.20;;;;;;1706847;29;20558;-79
2022/10/15 08:16:15;;;;;;;0.90;0.80;;;16.30;97.20;;;;;;1706953;28;20952;-78
2022/10/15 08:17:05;;;;;;;1.33;0.90;;;16.30;97.20;;;;;;1707242;29;20202;-79
2022/10/15 08:17:59;;;;;;;1.30;0.77;;;16.30;97.20;;;;;;1706892;29;20210;-78
2022/10/15 08:18:50;;;;;;;1.95;0.90;;;16.30;97.20;;;;;;1707225;29;20202;-78
2022/10/15 08:19:41;;;;;;;0.70;0.70;;;16.30;97.20;;;;;;1707422;28;20278;-77
2022/10/15 08:20:32;;;;;;;1.65;0.93;;;16.30;97.20;;;;;;1705975;28;20230;-78
2022/10/15 08:21:24;;;;;;;1.00;0.87;;;16.30;97.20;;;;;;1706984;29;20202;-77
2022/10/15 08:22:16;;;;;;;0.73;0.70;;;16.30;97.20;;;;;;1707282;29;20584;-79
2022/10/15 08:23:14;;;;;;;3.65;0.80;;;16.30;97.20;;;;;;1706967;29;20206;-78
2022/10/15 08:24:05;;;;;;;1.75;0.63;;;16.30;97.20;;;;;;1706943;29;20214;-78
2022/10/15 08:24:57;;;;;;;1.65;0.77;;;16.30;97.20;;;;;;1707087;29;20660;-78
2022/10/15 08:25:49;;;;;;;1.95;0.90;;;16.40;97.20;;;;;;1704156;29;20199;-78
2022/10/15 08:26:40;;;;;;;1.13;0.70;;;16.40;97.20;;;;;;1700811;29;20206;-78
2022/10/15 08:27:31;;;;;;;1.60;0.80;;;16.40;97.20;;;;;;1700797;29;20234;-78
2022/10/15 08:28:23;;;;;;;3.43;1.03;;;16.40;97.20;;;;;;1701286;29;20209;-78
2022/10/15 08:29:14;;;;;;;0.88;0.70;;;16.40;97.20;;;;;;1700970;29;20214;-78
2022/10/15 08:30:06;;;;;;;1.95;0.70;;;16.40;97.20;;;;;;1701019;29;20290;-80
2022/10/15 08:30:58;;;;;;;1.00;0.70;;;16.40;97.20;;;;;;1700920;29;20235;-79
2022/10/15 08:31:49;;;;;;;0.90;0.70;;;16.40;97.20;;;;;;1701340;29;20211;-77
2022/10/15 08:32:41;;;;;;;0.80;0.65;;;16.40;97.20;;;;;;1707591;29;20338;-78
2022/10/15 08:33:33;;;;;;;0.98;0.55;;;16.40;97.20;;;;;;1707635;29;20657;-78
2022/10/15 08:34:24;;;;;;;2.85;0.70;;;16.40;97.20;;;;;;1707689;28;20221;-78
2022/10/15 08:35:16;;;;;;;0.80;0.70;;;16.40;97.20;;;;;;1707869;29;20666;-77
2022/10/15 08:36:07;;;;;;;0.70;0.60;;;16.40;97.20;;;;;;1706965;28;20461;-76
2022/10/15 08:36:59;;;;;;;1.55;0.70;;;16.50;97.20;;;;;;1707596;28;20213;-76
2022/10/15 08:37:54;;;;;;;0.88;0.70;;;16.50;97.20;;;;;;1707511;29;20549;-77
2022/10/15 08:38:46;;;;;;;4.50;0.80;;;16.50;97.20;;;;;;1707509;29;20209;-77
2022/10/15 08:39:36;;;;;;;1.45;0.68;;;16.50;97.20;;;;;;1707176;29;20210;-79
2022/10/15 08:40:29;;;;;;;1.77;0.80;;;16.50;97.20;;;;;;1706816;28;20494;-80
2022/10/15 08:41:25;;;;;;;2.42;0.60;;;16.50;97.20;;;;;;1706792;29;20245;-79
2022/10/15 08:42:22;;;;;;;0.90;0.70;;;16.50;97.20;;;;;;1706848;29;20201;-77
2022/10/15 08:43:21;;;;;;;0.90;0.70;;;16.50;97.20;;;;;;1704684;28;20226;-77
2022/10/15 08:44:20;;;;;;;3.03;0.70;;;16.50;97.20;;;;;;1700907;29;20823;-77
2022/10/15 08:45:16;;;;;;;2.17;0.70;;;16.60;97.20;;;;;;1700947;29;20207;-76
2022/10/15 08:46:12;;;;;;;0.80;0.60;;;16.60;97.20;;;;;;1702821;29;20207;-82
2022/10/15 08:47:08;;;;;;;0.90;0.73;;;16.60;97.20;;;;;;1701901;29;20214;-82
2022/10/15 08:48:02;;;;;;;0.80;0.68;;;16.60;97.20;;;;;;1701940;29;20218;-82
2022/10/15 08:48:56;;;;;;;1.88;0.73;;;16.60;97.20;;;;;;1702666;29;20278;-82
2022/10/15 08:49:50;;;;;;;1.08;0.98;;;16.60;97.20;;;;;;1701542;29;20211;-77
2022/10/15 08:50:44;;;;;;;1.83;0.70;;;16.60;97.20;;;;;;1706763;29;20210;-76
2022/10/15 08:51:43;;;;;;;0.70;0.57;;;16.60;97.20;;;;;;1707204;29;20680;-76
2022/10/15 08:52:42;;;;;;;1.00;0.70;;;16.60;97.20;;;;;;1700882;29;20230;-77
2022/10/15 08:53:39;;;;;;;3.30;0.80;;;16.60;97.20;;;;;;1701037;29;20207;-74
2022/10/15 08:54:34;;;;;;;0.70;0.50;;;16.60;97.20;;;;;;1701069;29;20199;-77
2022/10/15 08:55:28;;;;;;;0.95;0.60;;;16.60;97.20;;;;;;1701739;29;20203;-76
2022/10/15 08:56:23;;;;;;;2.00;0.70;;;16.60;97.20;;;;;;1707130;28;20214;-76
2022/10/15 08:57:23;;;;;;;4.03;0.77;;;16.60;97.20;;;;;;1707329;29;20217;-76
2022/10/15 08:58:21;;;;;;;1.48;0.70;;;16.60;97.20;;;;;;1707438;29;20209;-75
2022/10/15 08:59:32;;;;;;;3.20;0.70;;;16.60;97.20;;;;;;1707220;29;20210;-75
2022/10/15 09:00:28;;;;;;;1.23;0.65;;;16.70;97.20;;;;;;1707441;28;20226;-75
2022/10/15 09:01:27;;;;;;;1.02;0.60;;;16.70;97.20;;;;;;1707495;28;20206;-75
2022/10/15 09:02:24;;;;;;;3.22;0.60;;;16.70;97.20;;;;;;1707493;28;20246;-75
2022/10/15 09:03:27;;;;;;;0.80;0.68;;;16.70;97.20;;;;;;1707490;28;20217;-75
2022/10/15 09:04:29;;;;;;;0.70;0.60;;;16.70;97.20;;;;;;1707516;28;20207;-75
2022/10/15 09:05:41;;;;;;;0.90;0.70;;;16.70;97.20;;;;;;1707469;28;20211;-76
2022/10/15 09:06:35;;;;;;;0.70;0.55;;;16.80;97.20;;;;;;1707296;28;20220;-77
2022/10/15 09:07:34;;;;;;;0.60;0.40;;;16.80;97.20;;;;;;1707293;28;20301;-76
2022/10/15 09:08:30;;;;;;;0.95;0.80;;;16.80;97.20;;;;;;1707406;28;20545;-76
2022/10/15 09:09:30;;;;;;;0.80;0.70;;;16.80;97.20;;;;;;1707489;28;20582;-76
2022/10/15 09:10:32;;;;;;;0.80;0.63;;;16.80;97.20;;;;;;1707377;28;20206;-75
2022/10/15 09:11:47;;;;;;;1.40;0.60;;;16.80;97.20;;;;;;1707252;28;20836;-76
2022/10/15 09:12:46;;;;;;;3.03;0.80;;;16.80;97.20;;;;;;1707550;28;20225;-74
2022/10/15 09:13:41;;;;;;;4.93;1.10;;;16.80;97.20;;;;;;1707498;28;20202;-74
2022/10/15 09:14:36;;;;;;;1.33;1.10;;;16.80;97.20;;;;;;1707519;28;20257;-74
2022/10/15 09:15:33;;;;;;;1.45;1.25;;;16.80;97.20;;;;;;1707475;28;20228;-75
2022/10/15 09:16:27;;;;;;;1.35;1.10;;;16.90;97.20;;;;;;1707150;28;20241;-74
2022/10/15 09:17:23;;;;;;;1.20;0.77;;;16.90;97.20;;;;;;1707392;28;20209;-75
2022/10/15 09:18:20;;;;;;;0.88;0.60;;;16.90;97.20;;;;;;1707529;28;20209;-74
2022/10/15 09:19:16;;;;;;;3.92;1.42;;;16.90;97.20;;;;;;1707531;28;20213;-76
2022/10/15 09:20:16;;;;;;;2.20;1.20;;;16.90;97.20;;;;;;1707323;28;20206;-76
2022/10/15 09:21:10;;;;;;;0.80;0.80;;;16.90;97.20;;;;;;1707675;29;20211;-77
2022/10/15 09:22:01;;;;;;;1.17;0.93;;;17.00;97.20;;;;;;1707504;29;20226;-75
2022/10/15 09:22:52;;;;;;;2.70;1.10;;;17.00;97.20;;;;;;1706498;29;20565;-76
2022/10/15 09:23:44;;;;;;;1.58;1.30;;;17.00;97.20;;;;;;1706782;29;20207;-77
2022/10/15 09:24:37;;;;;;;1.33;1.02;;;17.00;97.20;;;;;;1707049;29;20253;-76
2022/10/15 09:25:33;;;;;;;1.52;0.80;;;17.00;97.20;;;;;;1707406;29;20209;-75
2022/10/15 09:26:32;;;;;;;1.00;0.90;;;17.00;97.20;;;;;;1706876;29;20732;-75
2022/10/15 09:27:31;;;;;;;1.00;0.70;;;17.10;97.20;;;;;;1707176;29;20207;-76
2022/10/15 09:28:28;;;;;;;0.80;0.70;;;17.10;97.20;;;;;;1707386;29;20672;-77
2022/10/15 09:29:26;;;;;;;1.75;0.75;;;17.10;97.20;;;;;;1707340;29;20565;-76
2022/10/15 09:30:33;;;;;;;1.05;0.70;;;17.10;97.20;;;;;;1707041;29;20198;-75
2022/10/15 09:31:28;;;;;;;1.27;0.70;;;17.10;97.20;;;;;;1706939;29;20195;-76
2022/10/15 09:32:30;;;;;;;1.27;0.80;;;17.10;97.20;;;;;;1707132;29;20207;-76
2022/10/15 09:33:32;;;;;;;1.23;0.80;;;17.10;97.20;;;;;;1707320;29;20213;-76
2022/10/15 09:34:33;;;;;;;3.05;0.70;;;17.10;97.20;;;;;;1707446;29;20265;-77
2022/10/15 09:35:27;;;;;;;1.08;0.80;;;17.20;97.20;;;;;;1707369;29;20214;-77